Time,TemperatureF,DewpointF,PressureIn,WindDirection,WindDirectionDegrees,WindSpeedMPH,WindSpeedGustMPH,Humidity,HourlyPrecipIn,Conditions,Clouds,dailyrainin,SolarRadiationWatts/m^2,SoftwareType,DateUTC
2013-12-27 00:00:00,2.8,-0.2,30.08,NW,307,0.0,0.0,87,0.00,CLR,FEW,0.00,0.0,WeatherDisplay:10.37,2013-12-27 05:00:00,
2013-12-27 00:01:00,2.7,-0.3,30.08,NW,307,0.0,0.0,87,0.00,CLR,FEW,0.00,0.0,WeatherDisplay:10.37,2013-12-27 05:01:00,
2013-12-27 00:02:00,2.6,-0.4,30.08,NW,307,0.0,0.0,87,0.00,CLR,FEW,0.00,0.0,WeatherDisplay:10.37,2013-12-27 05:02:00,
2013-12-27 00:07:00,2.5,-0.7,30.08,NW,307,0.0,0.0,86,0.00,CLR,FEW,0.00,0.0,WeatherDisplay:10.37,2013-12-27 05:07:00,
2013-12-27 00:12:00,2.4,-0.8,30.08,NW,307,0.0,0.0,86,0.00,CLR,FEW,0.00,0.0,WeatherDisplay:10.37,2013-12-27 05:12:00,
2013-12-27 00:17:00,2.3,-0.7,30.08,NW,307,0.0,0.0,87,0.00,CLR,FEW,0.00,0.0,WeatherDisplay:10.37,2013-12-27 05:17:00,
2013-12-27 00:22:00,2.3,-0.7,30.08,NW,307,0.0,0.0,87,0.00,CLR,FEW,0.00,0.0,WeatherDisplay:10.37,2013-12-27 05:22:00,
2013-12-27 00:27:00,2.4,-0.6,30.08,NW,307,0.0,0.0,87,0.00,CLR,FEW,0.00,0.0,WeatherDisplay:10.37,2013-12-27 05:27:00,
2013-12-27 00:32:00,2.4,-0.6,30.08,NW,307,0.0,0.0,87,0.00,CLR,FEW,0.00,0.0,WeatherDisplay:10.37,2013-12-27 05:32:00,
2013-12-27 00:37:00,2.4,-0.6,30.08,NW,307,0.0,0.0,87,0.00,CLR,FEW,0.00,0.0,WeatherDisplay:10.37,2013-12-27 05:37:00,
2013-12-27 00:42:00,2.4,-0.6,30.07,NW,307,0.0,0.0,87,0.00,CLR,FEW,0.00,0.0,WeatherDisplay:10.37,2013-12-27 05:42:00,
2013-12-27 00:47:00,2.3,-0.7,30.07,NW,307,0.0,0.0,87,0.00,CLR,FEW,0.00,0.0,WeatherDisplay:10.37,2013-12-27 05:47:00,
2013-12-27 00:52:00,2.3,-0.7,30.07,NW,307,0.0,0.0,87,0.00,CLR,FEW,0.00,0.0,WeatherDisplay:10.37,2013-12-27 05:52:00,
2013-12-27 00:57:00,2.3,-0.7,30.07,NW,307,0.0,0.0,87,0.00,CLR,FEW,0.00,0.0,WeatherDisplay:10.37,2013-12-27 05:57:00,
2013-12-27 01:02:00,2.2,-0.8,30.07,NW,307,0.0,0.0,87,0.00,CLR,FEW,0.00,0.0,WeatherDisplay:10.37,2013-12-27 06:02:00,
2013-12-27 01:07:00,2.2,-0.8,30.07,NW,307,0.0,0.0,87,0.00,CLR,FEW,0.00,0.0,WeatherDisplay:10.37,2013-12-27 06:07:00,
2013-12-27 01:12:00,2.1,-0.9,30.07,NW,307,0.0,0.0,87,0.00,CLR,FEW,0.00,0.0,WeatherDisplay:10.37,2013-12-27 06:12:00,
2013-12-27 01:17:00,2.0,-1.0,30.07,NW,307,0.0,0.0,87,0.00,CLR,FEW,0.00,0.0,WeatherDisplay:10.37,2013-12-27 06:17:00,
2013-12-27 01:22:00,2.0,-1.0,30.07,NW,307,0.0,0.0,87,0.00,CLR,FEW,0.00,0.0,WeatherDisplay:10.37,2013-12-27 06:22:00,
2013-12-27 01:27:00,2.0,-1.0,30.06,NW,307,0.0,0.0,87,0.00,CLR,FEW,0.00,0.0,WeatherDisplay:10.37,2013-12-27 06:27:00,
2013-12-27 01:32:00,2.0,-1.0,30.06,NW,307,0.0,0.0,87,0.00,CLR,FEW,0.00,0.0,WeatherDisplay:10.37,2013-12-27 06:32:00,
2013-12-27 01:37:00,1.9,-1.1,30.06,NW,307,0.0,0.0,87,0.00,CLR,FEW,0.00,0.0,WeatherDisplay:10.37,2013-12-27 06:37:00,
2013-12-27 01:42:00,1.9,-1.1,30.07,NW,307,0.0,0.0,87,0.00,CLR,FEW,0.00,0.0,WeatherDisplay:10.37,2013-12-27 06:42:00,
2013-12-27 01:47:00,1.9,-1.1,30.07,NW,307,0.0,0.0,87,0.00,CLR,FEW,0.00,0.0,WeatherDisplay:10.37,2013-12-27 06:47:00,
2013-12-27 01:52:00,1.9,-1.1,30.07,NW,307,0.0,0.0,87,0.00,CLR,FEW,0.00,0.0,WeatherDisplay:10.37,2013-12-27 06:52:00,
2013-12-27 01:57:00,1.9,-0.8,30.07,NW,307,0.0,0.0,88,0.00,CLR,FEW,0.00,0.0,WeatherDisplay:10.37,2013-12-27 06:57:00,
2013-12-27 02:02:00,1.9,-0.8,30.07,NW,307,0.0,0.0,88,0.00,CLR,FEW,0.00,0.0,WeatherDisplay:10.37,2013-12-27 07:02:00,
2013-12-27 02:07:00,2.0,-0.7,30.07,NW,307,0.0,0.0,88,0.00,CLR,FEW,0.00,0.0,WeatherDisplay:10.37,2013-12-27 07:07:00,
2013-12-27 02:12:00,2.1,-0.6,30.08,NW,307,0.0,0.0,88,0.00,CLR,FEW,0.00,0.0,WeatherDisplay:10.37,2013-12-27 07:12:00,
2013-12-27 02:17:00,2.2,-0.5,30.08,NW,307,0.0,0.0,88,0.00,CLR,FEW,0.00,0.0,WeatherDisplay:10.37,2013-12-27 07:17:00,
2013-12-27 02:22:00,2.3,-0.4,30.08,NW,307,0.0,0.0,88,0.00,CLR,FEW,0.00,0.0,WeatherDisplay:10.37,2013-12-27 07:22:00,
2013-12-27 02:27:00,2.4,-0.3,30.08,NW,307,0.0,0.0,88,0.00,CLR,FEW,0.00,0.0,WeatherDisplay:10.37,2013-12-27 07:27:00,
2013-12-27 02:32:00,2.6,-0.1,30.08,NW,307,0.0,0.0,88,0.00,CLR,FEW,0.00,0.0,WeatherDisplay:10.37,2013-12-27 07:32:00,
2013-12-27 02:37:00,2.7,0.0,30.08,NW,307,0.0,0.0,88,0.00,CLR,FEW,0.00,0.0,WeatherDisplay:10.37,2013-12-27 07:37:00,
2013-12-27 02:42:00,2.8,0.1,30.09,NW,307,0.0,0.0,88,0.00,CLR,FEW,0.00,0.0,WeatherDisplay:10.37,2013-12-27 07:42:00,
2013-12-27 02:47:00,2.8,0.1,30.09,NW,307,0.0,0.0,88,0.00,CLR,FEW,0.00,0.0,WeatherDisplay:10.37,2013-12-27 07:47:00,
2013-12-27 02:52:00,2.8,0.1,30.09,NW,307,0.0,0.0,88,0.00,CLR,FEW,0.00,0.0,WeatherDisplay:10.37,2013-12-27 07:52:00,
2013-12-27 02:57:00,3.1,0.6,30.09,NW,307,0.0,0.0,89,0.00,CLR,FEW,0.00,0.0,WeatherDisplay:10.37,2013-12-27 07:57:00,
2013-12-27 03:02:00,3.2,0.7,30.09,NW,307,0.0,0.0,89,0.00,CLR,FEW,0.00,0.0,WeatherDisplay:10.37,2013-12-27 08:02:00,
2013-12-27 03:07:00,3.4,0.9,30.09,NW,307,0.0,0.0,89,0.00,CLR,FEW,0.00,0.0,WeatherDisplay:10.37,2013-12-27 08:07:00,
2013-12-27 03:12:00,3.6,1.1,30.08,NW,307,0.0,0.0,89,0.00,CLR,FEW,0.00,0.0,WeatherDisplay:10.37,2013-12-27 08:12:00,
2013-12-27 03:17:00,3.8,1.3,30.08,NW,307,0.0,0.0,89,0.00,CLR,FEW,0.00,0.0,WeatherDisplay:10.37,2013-12-27 08:17:00,
2013-12-27 03:22:00,3.9,1.4,30.08,NW,307,0.0,0.0,89,0.00,CLR,FEW,0.00,0.0,WeatherDisplay:10.37,2013-12-27 08:22:00,
2013-12-27 03:27:00,4.1,1.6,30.08,NW,307,0.0,0.0,89,0.00,CLR,FEW,0.00,0.0,WeatherDisplay:10.37,2013-12-27 08:27:00,
2013-12-27 03:32:00,4.4,2.1,30.08,NW,307,0.0,0.0,90,0.00,CLR,FEW,0.00,0.0,WeatherDisplay:10.37,2013-12-27 08:32:00,
2013-12-27 03:37:00,4.7,2.4,30.08,NW,307,0.0,0.0,90,0.00,CLR,FEW,0.00,0.0,WeatherDisplay:10.37,2013-12-27 08:37:00,
2013-12-27 03:42:00,5.1,2.8,30.08,NW,307,0.0,0.0,90,0.00,CLR,FEW,0.00,0.0,WeatherDisplay:10.37,2013-12-27 08:42:00,
2013-12-27 03:47:00,5.4,3.1,30.08,NW,307,0.0,0.0,90,0.00,CLR,FEW,0.00,0.0,WeatherDisplay:10.37,2013-12-27 08:47:00,
2013-12-27 03:52:00,5.6,3.3,30.08,NW,307,0.0,0.0,90,0.00,CLR,FEW,0.00,0.0,WeatherDisplay:10.37,2013-12-27 08:52:00,
2013-12-27 03:57:00,5.8,3.5,30.08,NW,307,0.0,0.0,90,0.00,CLR,FEW,0.00,0.0,WeatherDisplay:10.37,2013-12-27 08:57:00,
2013-12-27 04:02:00,6.0,3.7,30.08,NW,307,0.0,0.0,90,0.00,CLR,FEW,0.00,0.0,WeatherDisplay:10.37,2013-12-27 09:02:00,
2013-12-27 04:07:00,6.1,3.8,30.08,NW,307,0.0,0.0,90,0.00,CLR,FEW,0.00,0.0,WeatherDisplay:10.37,2013-12-27 09:07:00,
2013-12-27 04:12:00,6.3,4.0,30.09,NW,307,0.0,0.0,90,0.00,CLR,FEW,0.00,0.0,WeatherDisplay:10.37,2013-12-27 09:12:00,
2013-12-27 04:17:00,6.4,4.1,30.09,NW,307,0.0,0.0,90,0.00,CLR,FEW,0.00,0.0,WeatherDisplay:10.37,2013-12-27 09:17:00,
2013-12-27 04:22:00,6.8,4.5,30.09,NW,307,0.0,0.0,90,0.00,CLR,FEW,0.00,0.0,WeatherDisplay:10.37,2013-12-27 09:22:00,
2013-12-27 04:27:00,6.9,4.6,30.08,NW,307,0.0,0.0,90,0.00,CLR,FEW,0.00,0.0,WeatherDisplay:10.37,2013-12-27 09:27:00,
2013-12-27 04:32:00,7.1,5.0,30.08,NW,307,0.5,1.2,91,0.00,CLR,FEW,0.00,0.0,WeatherDisplay:10.37,2013-12-27 09:32:00,
2013-12-27 04:37:00,7.4,5.1,30.08,NW,307,0.0,0.0,90,0.00,CLR,FEW,0.00,0.0,WeatherDisplay:10.37,2013-12-27 09:37:00,
2013-12-27 04:42:00,7.6,5.5,30.08,NW,307,3.7,4.0,91,0.00,CLR,FEW,0.00,0.0,WeatherDisplay:10.37,2013-12-27 09:42:00,
2013-12-27 04:47:00,7.8,5.5,30.08,NW,307,0.0,0.0,90,0.00,CLR,FEW,0.00,0.0,WeatherDisplay:10.37,2013-12-27 09:47:00,
2013-12-27 04:52:00,7.8,5.5,30.08,NW,307,0.0,1.2,90,0.00,CLR,FEW,0.00,0.0,WeatherDisplay:10.37,2013-12-27 09:52:00,
2013-12-27 04:57:00,8.0,5.7,30.09,NW,307,0.0,0.0,90,0.00,CLR,FEW,0.00,0.0,WeatherDisplay:10.37,2013-12-27 09:57:00,
2013-12-27 05:02:00,8.1,5.8,30.09,NW,307,0.0,0.0,90,0.00,CLR,FEW,0.00,0.0,WeatherDisplay:10.37,2013-12-27 10:02:00,
2013-12-27 05:07:00,8.2,5.9,30.09,NW,307,0.0,0.0,90,0.00,CLR,FEW,0.00,0.0,WeatherDisplay:10.37,2013-12-27 10:07:00,
2013-12-27 05:12:00,8.3,6.0,30.08,NW,307,0.0,0.0,90,0.00,CLR,FEW,0.00,0.0,WeatherDisplay:10.37,2013-12-27 10:12:00,
2013-12-27 05:18:00,8.5,6.2,30.08,NW,307,0.0,0.0,90,0.00,CLR,FEW,0.00,0.0,WeatherDisplay:10.37,2013-12-27 10:18:00,
2013-12-27 05:23:00,8.7,6.6,30.08,NW,307,0.0,1.2,91,0.00,CLR,FEW,0.00,0.0,WeatherDisplay:10.37,2013-12-27 10:23:00,
2013-12-27 05:28:00,8.9,6.8,30.10,NW,307,0.0,0.0,91,0.00,CLR,FEW,0.00,0.0,WeatherDisplay:10.37,2013-12-27 10:28:00,
2013-12-27 05:33:00,9.2,7.1,30.10,NW,307,0.0,0.0,91,0.00,CLR,FEW,0.00,0.0,WeatherDisplay:10.37,2013-12-27 10:33:00,
2013-12-27 05:38:00,9.4,7.3,30.10,NW,307,0.0,0.0,91,0.00,CLR,FEW,0.00,0.0,WeatherDisplay:10.37,2013-12-27 10:38:00,
2013-12-27 05:43:00,9.5,7.4,30.09,NW,307,0.0,0.0,91,0.00,CLR,FEW,0.00,0.0,WeatherDisplay:10.37,2013-12-27 10:43:00,
2013-12-27 05:48:00,9.6,7.5,30.09,NW,307,0.0,0.0,91,0.00,CLR,FEW,0.00,0.0,WeatherDisplay:10.37,2013-12-27 10:48:00,
2013-12-27 05:53:00,9.9,7.8,30.09,NW,307,0.2,1.2,91,0.00,CLR,FEW,0.00,0.0,WeatherDisplay:10.37,2013-12-27 10:53:00,
2013-12-27 05:58:00,10.1,8.0,30.09,NW,307,0.0,0.0,91,0.00,CLR,FEW,0.00,0.0,WeatherDisplay:10.37,2013-12-27 10:58:00,
2013-12-27 06:03:00,10.2,8.1,30.09,NW,307,0.0,0.0,91,0.00,CLR,FEW,0.00,0.0,WeatherDisplay:10.37,2013-12-27 11:03:00,
2013-12-27 06:08:00,10.3,8.2,30.09,NW,307,0.0,0.0,91,0.00,CLR,FEW,0.00,0.0,WeatherDisplay:10.37,2013-12-27 11:08:00,
2013-12-27 06:13:00,10.5,8.4,30.10,NW,307,0.0,0.0,91,0.00,CLR,FEW,0.00,0.0,WeatherDisplay:10.37,2013-12-27 11:13:00,
2013-12-27 06:18:00,10.6,8.5,30.10,NW,307,0.0,0.0,91,0.00,CLR,FEW,0.00,0.0,WeatherDisplay:10.37,2013-12-27 11:18:00,
2013-12-27 06:23:00,10.9,8.8,30.10,NW,307,0.7,1.2,91,0.00,CLR,FEW,0.00,0.0,WeatherDisplay:10.37,2013-12-27 11:23:00,
2013-12-27 06:28:00,11.1,9.0,30.10,NW,307,0.0,0.0,91,0.00,CLR,FEW,0.00,0.0,WeatherDisplay:10.37,2013-12-27 11:28:00,
2013-12-27 06:33:00,11.4,9.3,30.10,NW,307,1.8,3.5,91,0.00,CLR,FEW,0.00,0.0,WeatherDisplay:10.37,2013-12-27 11:33:00,
2013-12-27 06:38:00,11.6,9.5,30.10,NW,307,0.0,0.0,91,0.00,CLR,FEW,0.00,0.0,WeatherDisplay:10.37,2013-12-27 11:38:00,
2013-12-27 06:43:00,11.6,9.5,30.09,NW,307,0.0,0.0,91,0.00,CLR,FEW,0.00,0.0,WeatherDisplay:10.37,2013-12-27 11:43:00,
2013-12-27 06:48:00,11.7,9.6,30.09,NW,307,0.0,0.0,91,0.00,CLR,FEW,0.00,0.0,WeatherDisplay:10.37,2013-12-27 11:48:00,
2013-12-27 06:53:00,11.7,9.6,30.09,NW,307,0.0,0.0,91,0.00,CLR,FEW,0.00,0.0,WeatherDisplay:10.37,2013-12-27 11:53:00,
2013-12-27 06:58:00,11.7,9.6,30.09,NW,307,0.0,0.0,91,0.00,CLR,FEW,0.00,0.0,WeatherDisplay:10.37,2013-12-27 11:58:00,
2013-12-27 07:03:00,11.8,9.7,30.09,NW,307,0.0,0.0,91,0.00,CLR,FEW,0.00,0.0,WeatherDisplay:10.37,2013-12-27 12:03:00,
2013-12-27 07:08:00,11.8,9.7,30.09,NW,307,0.0,0.0,91,0.00,CLR,FEW,0.00,0.0,WeatherDisplay:10.37,2013-12-27 12:08:00,
2013-12-27 07:13:00,11.9,9.8,30.10,NW,307,0.0,0.0,91,0.00,CLR,FEW,0.00,0.0,WeatherDisplay:10.37,2013-12-27 12:13:00,
2013-12-27 07:18:00,11.9,9.8,30.10,NW,307,0.3,1.2,91,0.00,CLR,FEW,0.00,0.0,WeatherDisplay:10.37,2013-12-27 12:18:00,
2013-12-27 07:23:00,12.0,9.9,30.10,NW,307,0.0,0.0,91,0.00,CLR,FEW,0.00,0.0,WeatherDisplay:10.37,2013-12-27 12:23:00,
2013-12-27 07:28:00,12.0,9.9,30.10,NW,307,0.1,1.2,91,0.00,CLR,FEW,0.00,0.0,WeatherDisplay:10.37,2013-12-27 12:28:00,
2013-12-27 07:33:00,11.9,9.8,30.10,NW,307,0.0,1.2,91,0.00,CLR,FEW,0.00,0.0,WeatherDisplay:10.37,2013-12-27 12:33:00,
2013-12-27 07:38:00,11.9,9.8,30.10,NW,307,0.0,0.0,91,0.00,CLR,FEW,0.00,0.0,WeatherDisplay:10.37,2013-12-27 12:38:00,
2013-12-27 07:43:00,11.7,9.6,30.10,NW,307,0.0,0.0,91,0.00,CLR,FEW,0.00,0.0,WeatherDisplay:10.37,2013-12-27 12:43:00,
2013-12-27 07:48:00,11.6,9.5,30.10,NW,307,0.1,1.0,91,0.00,CLR,FEW,0.00,0.0,WeatherDisplay:10.37,2013-12-27 12:48:00,
2013-12-27 07:53:00,11.4,9.0,30.10,NW,307,0.3,1.0,90,0.00,CLR,FEW,0.00,0.0,WeatherDisplay:10.37,2013-12-27 12:53:00,
2013-12-27 07:58:00,10.6,8.2,30.11,NW,307,0.0,0.0,90,0.00,CLR,FEW,0.00,0.0,WeatherDisplay:10.37,2013-12-27 12:58:00,
2013-12-27 08:03:00,10.3,7.7,30.11,NW,307,0.1,1.0,89,0.00,CLR,FEW,0.00,0.0,WeatherDisplay:10.37,2013-12-27 13:03:00,
2013-12-27 08:08:00,10.4,7.8,30.11,NW,307,1.4,2.3,89,0.00,CLR,FEW,0.00,0.0,WeatherDisplay:10.37,2013-12-27 13:08:00,
2013-12-27 08:13:00,10.8,8.4,30.11,NW,307,0.0,0.0,90,0.00,CLR,FEW,0.00,0.0,WeatherDisplay:10.37,2013-12-27 13:13:00,
2013-12-27 08:18:00,11.1,8.7,30.11,NW,307,0.0,0.0,90,0.00,CLR,FEW,0.00,0.0,WeatherDisplay:10.37,2013-12-27 13:18:00,
2013-12-27 08:23:00,11.4,9.0,30.11,NW,307,0.0,0.0,90,0.00,CLR,FEW,0.00,0.0,WeatherDisplay:10.37,2013-12-27 13:23:00,
2013-12-27 08:28:00,11.7,9.6,30.11,NW,307,0.0,0.0,91,0.00,CLR,FEW,0.00,0.0,WeatherDisplay:10.37,2013-12-27 13:28:00,
2013-12-27 08:33:00,12.0,9.9,30.11,NW,307,0.0,0.0,91,0.00,CLR,FEW,0.00,0.0,WeatherDisplay:10.37,2013-12-27 13:33:00,
2013-12-27 08:38:00,12.3,10.2,30.11,NW,307,0.0,0.0,91,0.00,CLR,FEW,0.00,0.0,WeatherDisplay:10.37,2013-12-27 13:38:00,
2013-12-27 08:43:00,12.7,10.8,30.11,NW,307,0.0,0.0,92,0.00,CLR,FEW,0.00,0.0,WeatherDisplay:10.37,2013-12-27 13:43:00,
2013-12-27 08:48:00,13.2,11.3,30.11,NW,307,0.0,0.0,92,0.00,CLR,FEW,0.00,0.0,WeatherDisplay:10.37,2013-12-27 13:48:00,
2013-12-27 08:53:00,13.9,12.0,30.11,NW,307,0.0,0.0,92,0.00,CLR,FEW,0.00,0.0,WeatherDisplay:10.37,2013-12-27 13:53:00,
2013-12-27 08:58:00,14.2,12.3,30.11,NW,307,0.0,0.0,92,0.00,CLR,FEW,0.00,0.0,WeatherDisplay:10.37,2013-12-27 13:58:00,
2013-12-27 09:03:00,14.5,12.6,30.11,NW,307,0.0,0.0,92,0.00,OVC,FEW,0.00,0.0,WeatherDisplay:10.37,2013-12-27 14:03:00,
2013-12-27 09:08:00,14.8,12.9,30.11,NW,307,0.0,0.0,92,0.00,OVC,FEW,0.00,0.0,WeatherDisplay:10.37,2013-12-27 14:08:00,
2013-12-27 09:13:00,15.2,13.5,30.11,NW,307,0.0,0.0,93,0.00,OVC,FEW,0.00,0.0,WeatherDisplay:10.37,2013-12-27 14:13:00,
2013-12-27 09:18:00,15.7,14.0,30.11,NW,307,0.0,0.0,93,0.00,OVC,FEW,0.00,0.0,WeatherDisplay:10.37,2013-12-27 14:18:00,
2013-12-27 09:23:00,16.2,14.5,30.11,NW,307,0.0,0.0,93,0.00,OVC,FEW,0.00,0.0,WeatherDisplay:10.37,2013-12-27 14:23:00,
2013-12-27 09:28:00,16.6,14.9,30.11,NW,307,0.0,0.0,93,0.00,OVC,FEW,0.00,0.0,WeatherDisplay:10.37,2013-12-27 14:28:00,
2013-12-27 09:33:00,17.2,15.5,30.11,NW,307,0.0,0.0,93,0.00,OVC,FEW,0.00,0.0,WeatherDisplay:10.37,2013-12-27 14:33:00,
2013-12-27 09:38:00,18.0,16.3,30.11,NW,307,0.0,0.0,93,0.00,OVC,FEW,0.00,0.0,WeatherDisplay:10.37,2013-12-27 14:38:00,
2013-12-27 09:43:00,18.9,17.5,30.10,NW,307,0.0,0.0,94,0.00,OVC,FEW,0.00,0.0,WeatherDisplay:10.37,2013-12-27 14:43:00,
2013-12-27 09:48:00,19.7,18.3,30.10,NW,307,0.0,0.0,94,0.00,OVC,FEW,0.00,0.0,WeatherDisplay:10.37,2013-12-27 14:48:00,
2013-12-27 09:53:00,20.6,19.1,30.10,NW,307,0.0,0.0,94,0.00,OVC,FEW,0.00,0.0,WeatherDisplay:10.37,2013-12-27 14:53:00,
2013-12-27 09:58:00,21.2,19.7,30.09,NW,307,0.0,0.0,94,0.00,OVC,FEW,0.00,0.0,WeatherDisplay:10.37,2013-12-27 14:58:00,
2013-12-27 10:03:00,21.3,19.6,30.09,NW,307,0.0,0.0,93,0.00,OVC,FEW,0.00,0.0,WeatherDisplay:10.37,2013-12-27 15:03:00,
2013-12-27 10:08:00,21.3,19.6,30.09,NW,307,0.0,0.0,93,0.00,OVC,FEW,0.00,0.0,WeatherDisplay:10.37,2013-12-27 15:08:00,
2013-12-27 10:13:00,21.6,19.9,30.09,NW,307,0.0,0.0,93,0.00,OVC,FEW,0.00,0.0,WeatherDisplay:10.37,2013-12-27 15:13:00,
2013-12-27 10:18:00,22.7,21.0,30.09,NW,307,0.0,0.0,93,0.00,OVC,FEW,0.00,0.0,WeatherDisplay:10.37,2013-12-27 15:18:00,
2013-12-27 10:23:00,24.0,22.3,30.09,NW,307,0.0,0.0,93,0.00,OVC,FEW,0.00,0.0,WeatherDisplay:10.37,2013-12-27 15:23:00,
2013-12-27 10:28:00,25.0,23.3,30.09,NW,307,0.0,0.0,93,0.00,OVC,FEW,0.00,0.0,WeatherDisplay:10.37,2013-12-27 15:28:00,
2013-12-27 10:33:00,25.8,23.8,30.09,NW,307,0.0,1.2,92,0.00,OVC,FEW,0.00,0.0,WeatherDisplay:10.37,2013-12-27 15:33:00,
2013-12-27 10:38:00,26.6,24.6,30.09,NW,307,0.2,0.0,92,0.00,OVC,FEW,0.00,0.0,WeatherDisplay:10.37,2013-12-27 15:38:00,
2013-12-27 10:43:00,27.2,24.9,30.08,NW,307,0.0,0.0,91,0.00,OVC,FEW,0.00,0.0,WeatherDisplay:10.37,2013-12-27 15:43:00,
2013-12-27 10:48:00,27.8,25.2,30.08,NW,307,0.0,0.0,90,0.00,OVC,FEW,0.00,0.0,WeatherDisplay:10.37,2013-12-27 15:48:00,
2013-12-27 10:53:00,28.3,25.7,30.08,WNW,298,0.9,1.0,90,0.00,OVC,FEW,0.00,0.0,WeatherDisplay:10.37,2013-12-27 15:53:00,
2013-12-27 10:58:00,28.8,26.2,30.08,WNW,299,0.0,0.0,90,0.00,OVC,FEW,0.00,0.0,WeatherDisplay:10.37,2013-12-27 15:58:00,
2013-12-27 11:03:00,29.3,26.5,30.08,WNW,299,0.7,3.5,89,0.00,OVC,FEW,0.00,0.0,WeatherDisplay:10.37,2013-12-27 16:03:00,
2013-12-27 11:08:00,29.5,26.7,30.08,WNW,299,0.0,1.2,89,0.00,OVC,FEW,0.00,0.0,WeatherDisplay:10.37,2013-12-27 16:08:00,
2013-12-27 11:13:00,29.6,26.8,30.08,NW,307,0.0,1.2,89,0.00,OVC,FEW,0.00,0.0,WeatherDisplay:10.37,2013-12-27 16:13:00,
2013-12-27 11:18:00,29.8,27.0,30.08,NW,307,0.0,0.0,89,0.00,OVC,FEW,0.00,0.0,WeatherDisplay:10.37,2013-12-27 16:18:00,
2013-12-27 11:23:00,29.9,26.8,30.08,NW,307,0.0,0.0,88,0.00,OVC,FEW,0.00,0.0,WeatherDisplay:10.37,2013-12-27 16:23:00,
2013-12-27 11:28:00,30.0,27.2,30.07,NW,307,0.1,0.0,89,0.00,OVC,FEW,0.00,0.0,WeatherDisplay:10.37,2013-12-27 16:28:00,
2013-12-27 11:33:00,30.0,27.2,30.07,NW,307,0.0,0.0,89,0.00,OVC,FEW,0.00,0.0,WeatherDisplay:10.37,2013-12-27 16:33:00,
2013-12-27 11:38:00,30.2,27.3,30.07,NW,307,0.0,0.0,89,0.00,OVC,FEW,0.00,0.0,WeatherDisplay:10.37,2013-12-27 16:38:00,
2013-12-27 11:43:00,30.5,27.6,30.07,NW,307,0.2,1.0,89,0.00,OVC,FEW,0.00,0.0,WeatherDisplay:10.37,2013-12-27 16:43:00,
2013-12-27 11:48:00,30.8,27.9,30.07,NW,307,0.5,1.2,89,0.00,OVC,FEW,0.00,0.0,WeatherDisplay:10.37,2013-12-27 16:48:00,
2013-12-27 11:53:00,30.8,28.2,30.07,NW,307,0.3,1.2,90,0.00,OVC,FEW,0.00,0.0,WeatherDisplay:10.37,2013-12-27 16:53:00,
2013-12-27 11:58:00,30.8,28.2,30.06,NW,307,0.2,1.2,90,0.00,OVC,FEW,0.00,0.0,WeatherDisplay:10.37,2013-12-27 16:58:00,
2013-12-27 12:03:00,30.9,28.3,30.06,NW,307,0.0,0.0,90,0.00,OVC,FEW,0.00,0.0,WeatherDisplay:10.37,2013-12-27 17:03:00,
2013-12-27 12:08:00,31.0,28.4,30.06,NW,307,0.6,1.0,90,0.00,OVC,FEW,0.00,0.0,WeatherDisplay:10.37,2013-12-27 17:08:00,
2013-12-27 12:13:00,31.1,28.5,30.06,NW,307,0.0,0.0,90,0.00,OVC,FEW,0.00,0.0,WeatherDisplay:10.37,2013-12-27 17:13:00,
2013-12-27 12:18:00,31.3,28.7,30.06,NW,307,0.7,1.2,90,0.00,OVC,FEW,0.00,0.0,WeatherDisplay:10.37,2013-12-27 17:18:00,
2013-12-27 12:23:00,31.3,28.4,30.06,NW,307,0.1,2.3,89,0.00,OVC,FEW,0.00,0.0,WeatherDisplay:10.37,2013-12-27 17:23:00,
2013-12-27 12:28:00,31.3,28.2,30.06,NW,307,1.6,3.0,88,0.00,OVC,FEW,0.00,0.0,WeatherDisplay:10.37,2013-12-27 17:28:00,
2013-12-27 12:34:00,31.2,28.1,30.06,NW,307,2.3,3.5,88,0.00,OVC,FEW,0.00,0.0,WeatherDisplay:10.37,2013-12-27 17:34:00,
2013-12-27 12:39:00,31.1,27.7,30.06,NW,307,0.0,0.0,87,0.00,OVC,FEW,0.00,0.0,WeatherDisplay:10.37,2013-12-27 17:39:00,
2013-12-27 12:44:00,31.1,27.7,30.06,NW,307,1.4,2.3,87,0.00,OVC,FEW,0.00,0.0,WeatherDisplay:10.37,2013-12-27 17:44:00,
2013-12-27 12:49:00,31.1,27.7,30.06,NW,307,1.0,3.0,87,0.00,OVC,FEW,0.00,0.0,WeatherDisplay:10.37,2013-12-27 17:49:00,
2013-12-27 12:54:00,31.1,27.7,30.06,NW,307,0.1,1.2,87,0.00,OVC,FEW,0.00,0.0,WeatherDisplay:10.37,2013-12-27 17:54:00,
2013-12-27 12:59:00,31.1,27.4,30.05,NW,307,2.3,4.0,86,0.00,OVC,FEW,0.00,0.0,WeatherDisplay:10.37,2013-12-27 17:59:00,
2013-12-27 13:04:00,31.1,27.4,30.05,NW,307,0.0,0.0,86,0.00,OVC,FEW,0.00,0.0,WeatherDisplay:10.37,2013-12-27 18:04:00,
2013-12-27 13:09:00,31.2,27.5,30.05,NW,307,0.3,2.3,86,0.00,OVC,FEW,0.00,0.0,WeatherDisplay:10.37,2013-12-27 18:09:00,
2013-12-27 13:14:00,31.2,27.5,30.05,NW,307,0.9,2.3,86,0.00,OVC,FEW,0.00,0.0,WeatherDisplay:10.37,2013-12-27 18:14:00,
2013-12-27 13:19:00,31.1,27.1,30.05,NW,307,0.6,2.3,85,0.00,OVC,FEW,0.00,0.0,WeatherDisplay:10.37,2013-12-27 18:19:00,
2013-12-27 13:24:00,31.0,26.7,30.05,NW,307,0.0,0.0,84,0.00,OVC,FEW,0.00,0.0,WeatherDisplay:10.37,2013-12-27 18:24:00,
2013-12-27 13:29:00,31.0,26.7,30.05,NW,307,0.0,0.0,84,0.00,OVC,FEW,0.00,0.0,WeatherDisplay:10.37,2013-12-27 18:29:00,
2013-12-27 13:34:00,31.0,26.1,30.05,NW,307,1.7,3.5,82,0.00,OVC,FEW,0.00,0.0,WeatherDisplay:10.37,2013-12-27 18:34:00,
2013-12-27 13:39:00,30.9,25.8,30.05,NW,307,0.0,0.0,81,0.00,OVC,FEW,0.00,0.0,WeatherDisplay:10.37,2013-12-27 18:39:00,
2013-12-27 13:44:00,31.0,26.4,30.04,NW,307,1.3,3.5,83,0.00,OVC,FEW,0.00,0.0,WeatherDisplay:10.37,2013-12-27 18:44:00,
2013-12-27 13:49:00,31.1,26.8,30.04,NW,307,0.0,0.0,84,0.00,OVC,FEW,0.00,0.0,WeatherDisplay:10.37,2013-12-27 18:49:00,
2013-12-27 13:54:00,31.2,27.2,30.04,NW,307,0.0,0.0,85,0.00,OVC,FEW,0.00,0.0,WeatherDisplay:10.37,2013-12-27 18:54:00,
2013-12-27 13:59:00,31.4,27.4,30.05,NW,307,0.4,2.3,85,0.00,OVC,FEW,0.00,0.0,WeatherDisplay:10.37,2013-12-27 18:59:00,
2013-12-27 14:04:00,31.5,27.5,30.05,NW,307,0.0,0.0,85,0.00,OVC,FEW,0.00,0.0,WeatherDisplay:10.37,2013-12-27 19:04:00,
2013-12-27 14:09:00,31.6,27.9,30.05,NW,307,0.0,0.0,86,0.00,OVC,FEW,0.00,0.0,WeatherDisplay:10.37,2013-12-27 19:09:00,
2013-12-27 14:14:00,31.7,27.7,30.04,NW,307,0.6,3.0,85,0.00,OVC,FEW,0.00,0.0,WeatherDisplay:10.37,2013-12-27 19:14:00,
2013-12-27 14:19:00,31.6,29.5,30.04,NW,306,0.0,0.0,92,0.00,OVC,FEW,0.00,0.0,WeatherDisplay:10.37,2013-12-27 19:19:00,
2013-12-27 14:24:00,31.7,28.0,30.04,NW,306,0.0,0.0,86,0.00,OVC,FEW,0.00,0.0,WeatherDisplay:10.37,2013-12-27 19:24:00,
2013-12-27 14:29:00,31.8,28.4,30.04,NW,306,0.0,0.0,87,0.00,OVC,FEW,0.00,0.0,WeatherDisplay:10.37,2013-12-27 19:29:00,
2013-12-27 14:34:00,31.9,28.2,30.04,NW,306,0.4,2.3,86,0.00,OVC,FEW,0.00,0.0,WeatherDisplay:10.37,2013-12-27 19:34:00,
2013-12-27 14:39:00,31.7,26.8,30.04,NW,307,2.5,3.5,82,0.00,OVC,FEW,0.00,0.0,WeatherDisplay:10.37,2013-12-27 19:39:00,
2013-12-27 14:44:00,31.5,26.0,30.04,NW,307,1.2,2.3,80,0.00,OVC,FEW,0.00,0.0,WeatherDisplay:10.37,2013-12-27 19:44:00,
2013-12-27 14:49:00,31.3,25.8,30.04,NW,307,0.0,0.0,80,0.00,OVC,FEW,0.00,0.0,WeatherDisplay:10.37,2013-12-27 19:49:00,
2013-12-27 14:54:00,31.2,26.0,30.04,NW,307,0.0,0.0,81,0.00,OVC,FEW,0.00,0.0,WeatherDisplay:10.37,2013-12-27 19:54:00,
2013-12-27 14:59:00,31.3,26.7,30.04,NW,307,0.0,0.0,83,0.00,OVC,FEW,0.00,0.0,WeatherDisplay:10.37,2013-12-27 19:59:00,
2013-12-27 15:04:00,31.3,26.7,30.04,NW,307,0.0,0.0,83,0.00,CLR,FEW,0.00,0.0,WeatherDisplay:10.37,2013-12-27 20:04:00,
2013-12-27 15:09:00,31.1,26.8,30.04,NW,307,0.0,0.0,84,0.00,CLR,FEW,0.00,0.0,WeatherDisplay:10.37,2013-12-27 20:09:00,
2013-12-27 15:14:00,30.9,26.9,30.04,NW,307,0.0,0.0,85,0.00,CLR,FEW,0.00,0.0,WeatherDisplay:10.37,2013-12-27 20:14:00,
2013-12-27 15:19:00,30.8,27.1,30.04,NW,307,0.0,0.0,86,0.00,CLR,FEW,0.00,0.0,WeatherDisplay:10.37,2013-12-27 20:19:00,
2013-12-27 15:24:00,30.6,26.9,30.04,NW,307,0.0,0.0,86,0.00,CLR,FEW,0.00,0.0,WeatherDisplay:10.37,2013-12-27 20:24:00,
2013-12-27 15:29:00,30.4,26.7,30.04,NW,307,0.0,0.0,86,0.00,CLR,FEW,0.00,0.0,WeatherDisplay:10.37,2013-12-27 20:29:00,
2013-12-27 15:34:00,30.2,26.5,30.04,NW,307,0.0,0.0,86,0.00,CLR,FEW,0.00,0.0,WeatherDisplay:10.37,2013-12-27 20:34:00,
2013-12-27 15:39:00,29.9,26.2,30.04,NW,307,0.0,0.0,86,0.00,CLR,FEW,0.00,0.0,WeatherDisplay:10.37,2013-12-27 20:39:00,
2013-12-27 15:44:00,29.7,26.0,30.05,NW,307,0.0,0.0,86,0.00,CLR,FEW,0.00,0.0,WeatherDisplay:10.37,2013-12-27 20:44:00,
2013-12-27 15:49:00,29.4,26.0,30.05,NW,307,0.0,0.0,87,0.00,CLR,FEW,0.00,0.0,WeatherDisplay:10.37,2013-12-27 20:49:00,
2013-12-27 15:54:00,29.0,25.6,30.05,NW,307,0.0,0.0,87,0.00,CLR,FEW,0.00,0.0,WeatherDisplay:10.37,2013-12-27 20:54:00,
2013-12-27 15:59:00,28.8,25.4,30.05,NW,307,0.0,0.0,87,0.00,CLR,FEW,0.00,0.0,WeatherDisplay:10.37,2013-12-27 20:59:00,
2013-12-27 16:04:00,28.3,25.2,30.05,NW,307,0.0,0.0,88,0.00,CLR,FEW,0.00,0.0,WeatherDisplay:10.37,2013-12-27 21:04:00,
2013-12-27 16:09:00,28.1,25.0,30.05,NW,307,0.0,0.0,88,0.00,CLR,FEW,0.00,0.0,WeatherDisplay:10.37,2013-12-27 21:09:00,
2013-12-27 16:14:00,27.7,24.6,30.05,NW,307,0.0,0.0,88,0.00,CLR,FEW,0.00,0.0,WeatherDisplay:10.37,2013-12-27 21:14:00,
2013-12-27 16:19:00,27.5,24.7,30.05,NW,307,0.0,0.0,89,0.00,CLR,FEW,0.00,0.0,WeatherDisplay:10.37,2013-12-27 21:19:00,
2013-12-27 16:24:00,27.2,24.4,30.05,NW,307,0.0,0.0,89,0.00,CLR,FEW,0.00,0.0,WeatherDisplay:10.37,2013-12-27 21:24:00,
2013-12-27 16:29:00,26.9,24.1,30.04,NW,307,0.0,0.0,89,0.00,CLR,FEW,0.00,0.0,WeatherDisplay:10.37,2013-12-27 21:29:00,
2013-12-27 16:34:00,26.6,23.8,30.04,NW,307,0.0,0.0,89,0.00,CLR,FEW,0.00,0.0,WeatherDisplay:10.37,2013-12-27 21:34:00,
2013-12-27 16:39:00,26.3,23.5,30.04,NW,307,0.0,0.0,89,0.00,CLR,FEW,0.00,0.0,WeatherDisplay:10.37,2013-12-27 21:39:00,
2013-12-27 16:44:00,26.0,23.2,30.05,NW,307,0.0,0.0,89,0.00,CLR,FEW,0.00,0.0,WeatherDisplay:10.37,2013-12-27 21:44:00,
2013-12-27 16:49:00,25.7,22.9,30.05,NW,307,0.0,0.0,89,0.00,CLR,FEW,0.00,0.0,WeatherDisplay:10.37,2013-12-27 21:49:00,
2013-12-27 16:54:00,25.4,22.6,30.05,NW,307,0.0,0.0,89,0.00,CLR,FEW,0.00,0.0,WeatherDisplay:10.37,2013-12-27 21:54:00,
2013-12-27 16:59:00,25.1,22.3,30.06,NW,307,0.0,0.0,89,0.00,CLR,FEW,0.00,0.0,WeatherDisplay:10.37,2013-12-27 21:59:00,
2013-12-27 17:04:00,24.8,22.0,30.06,NW,307,0.0,0.0,89,0.00,CLR,FEW,0.00,0.0,WeatherDisplay:10.37,2013-12-27 22:04:00,
2013-12-27 17:09:00,24.4,21.6,30.06,NW,307,0.0,0.0,89,0.00,CLR,FEW,0.00,0.0,WeatherDisplay:10.37,2013-12-27 22:09:00,
2013-12-27 17:14:00,24.1,21.3,30.06,NW,307,0.0,0.0,89,0.00,CLR,FEW,0.00,0.0,WeatherDisplay:10.37,2013-12-27 22:14:00,
2013-12-27 17:19:00,23.8,21.0,30.06,NW,307,0.0,0.0,89,0.00,CLR,FEW,0.00,0.0,WeatherDisplay:10.37,2013-12-27 22:19:00,
2013-12-27 17:24:00,22.7,19.7,30.06,NW,307,0.0,0.0,88,0.00,CLR,FEW,0.00,0.0,WeatherDisplay:10.37,2013-12-27 22:24:00,
2013-12-27 17:29:00,21.6,18.6,30.06,NW,307,0.5,2.3,88,0.00,CLR,FEW,0.00,0.0,WeatherDisplay:10.37,2013-12-27 22:29:00,
2013-12-27 17:34:00,20.9,17.9,30.06,NW,307,0.0,0.0,88,0.00,CLR,FEW,0.00,0.0,WeatherDisplay:10.37,2013-12-27 22:34:00,
2013-12-27 17:39:00,20.8,18.1,30.07,NW,307,0.5,2.3,89,0.00,CLR,FEW,0.00,0.0,WeatherDisplay:10.37,2013-12-27 22:39:00,
2013-12-27 17:44:00,20.8,18.3,30.07,NW,307,0.0,0.0,90,0.00,CLR,FEW,0.00,0.0,WeatherDisplay:10.37,2013-12-27 22:44:00,
2013-12-27 17:49:00,20.8,18.3,30.07,NW,307,0.0,0.0,90,0.00,CLR,FEW,0.00,0.0,WeatherDisplay:10.37,2013-12-27 22:49:00,
2013-12-27 17:54:00,21.0,18.8,30.07,NW,307,0.0,0.0,91,0.00,CLR,FEW,0.00,0.0,WeatherDisplay:10.37,2013-12-27 22:54:00,
2013-12-27 17:59:00,21.5,19.5,30.07,NW,307,0.0,0.0,92,0.00,CLR,FEW,0.00,0.0,WeatherDisplay:10.37,2013-12-27 22:59:00,
2013-12-27 18:04:00,21.9,19.9,30.07,NW,307,0.0,0.0,92,0.00,CLR,FEW,0.00,0.0,WeatherDisplay:10.37,2013-12-27 23:04:00,
2013-12-27 18:09:00,22.2,20.2,30.07,NW,307,0.0,0.0,92,0.00,CLR,FEW,0.00,0.0,WeatherDisplay:10.37,2013-12-27 23:09:00,
2013-12-27 18:14:00,22.8,21.1,30.07,NW,307,0.0,2.3,93,0.00,CLR,FEW,0.00,0.0,WeatherDisplay:10.37,2013-12-27 23:14:00,
2013-12-27 18:19:00,23.1,21.4,30.07,NW,307,0.0,0.0,93,0.00,CLR,FEW,0.00,0.0,WeatherDisplay:10.37,2013-12-27 23:19:00,
2013-12-27 18:24:00,23.4,21.7,30.07,NW,307,0.0,0.0,93,0.00,CLR,FEW,0.00,0.0,WeatherDisplay:10.37,2013-12-27 23:24:00,
2013-12-27 18:29:00,23.7,22.2,30.07,NW,307,0.0,1.2,94,0.00,CLR,FEW,0.00,0.0,WeatherDisplay:10.37,2013-12-27 23:29:00,
2013-12-27 18:34:00,24.0,22.5,30.07,NW,307,0.0,3.5,94,0.00,CLR,FEW,0.00,0.0,WeatherDisplay:10.37,2013-12-27 23:34:00,
2013-12-27 18:39:00,24.1,22.6,30.08,NW,307,0.0,0.0,94,0.00,CLR,FEW,0.00,0.0,WeatherDisplay:10.37,2013-12-27 23:39:00,
2013-12-27 18:44:00,24.2,22.7,30.08,NW,307,0.0,0.0,94,0.00,CLR,FEW,0.00,0.0,WeatherDisplay:10.37,2013-12-27 23:44:00,
2013-12-27 18:49:00,24.3,22.8,30.08,NW,307,0.0,0.0,94,0.00,CLR,FEW,0.00,0.0,WeatherDisplay:10.37,2013-12-27 23:49:00,
2013-12-27 18:54:00,24.4,22.9,30.08,NW,307,0.0,1.2,94,0.00,CLR,FEW,0.00,0.0,WeatherDisplay:10.37,2013-12-27 23:54:00,
2013-12-27 18:59:00,24.4,22.9,30.08,NW,307,0.0,0.0,94,0.00,CLR,FEW,0.00,0.0,WeatherDisplay:10.37,2013-12-27 23:59:00,
2013-12-27 19:04:00,24.3,22.8,30.08,NW,307,1.0,3.0,94,0.00,CLR,FEW,0.00,0.0,WeatherDisplay:10.37,2013-12-28 00:04:00,
2013-12-27 19:09:00,24.1,22.6,30.08,NW,306,0.1,0.0,94,0.00,CLR,FEW,0.00,0.0,WeatherDisplay:10.37,2013-12-28 00:09:00,
2013-12-27 19:14:00,24.0,22.5,30.08,NW,306,0.0,0.0,94,0.00,CLR,FEW,0.00,0.0,WeatherDisplay:10.37,2013-12-28 00:14:00,
2013-12-27 19:19:00,23.9,22.4,30.08,WNW,298,1.8,3.5,94,0.00,CLR,FEW,0.00,0.0,WeatherDisplay:10.37,2013-12-28 00:19:00,
2013-12-27 19:24:00,24.2,22.7,30.08,WNW,298,0.3,2.3,94,0.00,CLR,FEW,0.00,0.0,WeatherDisplay:10.37,2013-12-28 00:24:00,
2013-12-27 19:29:00,24.3,22.6,30.08,WNW,298,0.0,0.0,93,0.00,CLR,FEW,0.00,0.0,WeatherDisplay:10.37,2013-12-28 00:29:00,
2013-12-27 19:34:00,24.2,22.5,30.08,WNW,298,0.5,0.0,93,0.00,CLR,FEW,0.00,0.0,WeatherDisplay:10.37,2013-12-28 00:34:00,
2013-12-27 19:39:00,23.9,22.2,30.08,WNW,298,0.0,0.0,93,0.00,CLR,FEW,0.00,0.0,WeatherDisplay:10.37,2013-12-28 00:39:00,
2013-12-27 19:44:00,23.5,21.5,30.08,WNW,298,0.0,1.2,92,0.00,CLR,FEW,0.00,0.0,WeatherDisplay:10.37,2013-12-28 00:44:00,
2013-12-27 19:49:00,23.3,21.3,30.08,WNW,298,0.0,1.2,92,0.00,CLR,FEW,0.00,0.0,WeatherDisplay:10.37,2013-12-28 00:49:00,
2013-12-27 19:55:00,23.0,21.0,30.09,WNW,298,0.0,0.0,92,0.00,CLR,FEW,0.00,0.0,WeatherDisplay:10.37,2013-12-28 00:55:00,
2013-12-27 20:00:00,22.8,20.8,30.09,WNW,298,0.0,0.0,92,0.00,CLR,FEW,0.00,0.0,WeatherDisplay:10.37,2013-12-28 01:00:00,
2013-12-27 20:05:00,22.6,20.6,30.09,WNW,298,0.0,1.0,92,0.00,CLR,FEW,0.00,0.0,WeatherDisplay:10.37,2013-12-28 01:05:00,
2013-12-27 20:06:00,22.5,20.5,30.09,WNW,298,0.0,0.0,92,0.00,CLR,FEW,0.00,0.0,WeatherDisplay:10.37,2013-12-28 01:06:00,
2013-12-27 20:11:00,22.2,20.2,30.09,WNW,298,0.0,0.0,92,0.00,CLR,FEW,0.00,0.0,WeatherDisplay:10.37,2013-12-28 01:11:00,
2013-12-27 20:16:00,22.0,19.8,30.09,WNW,298,0.0,0.0,91,0.00,CLR,FEW,0.00,0.0,WeatherDisplay:10.37,2013-12-28 01:16:00,
2013-12-27 20:21:00,21.8,19.8,30.09,WNW,298,0.0,1.2,92,0.00,CLR,FEW,0.00,0.0,WeatherDisplay:10.37,2013-12-28 01:21:00,
2013-12-27 20:26:00,21.7,19.5,30.08,WNW,298,0.0,0.0,91,0.00,CLR,FEW,0.00,0.0,WeatherDisplay:10.37,2013-12-28 01:26:00,
2013-12-27 20:31:00,21.6,19.4,30.08,WNW,298,0.0,0.0,91,0.00,CLR,FEW,0.00,0.0,WeatherDisplay:10.37,2013-12-28 01:31:00,
2013-12-27 20:36:00,21.5,19.5,30.08,WNW,298,0.0,0.0,92,0.00,CLR,FEW,0.00,0.0,WeatherDisplay:10.37,2013-12-28 01:36:00,
2013-12-27 20:41:00,21.4,19.4,30.08,WNW,298,0.0,0.0,92,0.00,CLR,FEW,0.00,0.0,WeatherDisplay:10.37,2013-12-28 01:41:00,
2013-12-27 20:46:00,21.3,19.3,30.08,WNW,298,0.7,1.2,92,0.00,CLR,FEW,0.00,0.0,WeatherDisplay:10.37,2013-12-28 01:46:00,
2013-12-27 20:51:00,21.1,19.1,30.08,WNW,298,0.0,0.0,92,0.00,CLR,FEW,0.00,0.0,WeatherDisplay:10.37,2013-12-28 01:51:00,
2013-12-27 20:56:00,21.0,19.0,30.09,WNW,298,0.0,0.0,92,0.00,CLR,FEW,0.00,0.0,WeatherDisplay:10.37,2013-12-28 01:56:00,
2013-12-27 21:01:00,20.9,18.9,30.09,WNW,298,0.0,0.0,92,0.00,CLR,FEW,0.00,0.0,WeatherDisplay:10.37,2013-12-28 02:01:00,
2013-12-27 21:06:00,20.8,18.8,30.09,WNW,298,0.0,0.0,92,0.00,CLR,FEW,0.00,0.0,WeatherDisplay:10.37,2013-12-28 02:06:00,
2013-12-27 21:11:00,20.7,18.7,30.10,WNW,298,0.0,0.0,92,0.00,CLR,FEW,0.00,0.0,WeatherDisplay:10.37,2013-12-28 02:11:00,
2013-12-27 21:16:00,20.4,18.2,30.10,WNW,298,0.0,0.0,91,0.00,CLR,FEW,0.00,0.0,WeatherDisplay:10.37,2013-12-28 02:16:00,
2013-12-27 21:21:00,20.2,18.0,30.10,WNW,298,0.0,0.0,91,0.00,CLR,FEW,0.00,0.0,WeatherDisplay:10.37,2013-12-28 02:21:00,
2013-12-27 21:26:00,19.5,17.3,30.10,NW,307,0.0,0.0,91,0.00,CLR,FEW,0.00,0.0,WeatherDisplay:10.37,2013-12-28 02:26:00,
2013-12-27 21:31:00,18.7,16.3,30.10,NW,307,0.0,0.0,90,0.00,CLR,FEW,0.00,0.0,WeatherDisplay:10.37,2013-12-28 02:31:00,
2013-12-27 21:36:00,17.9,15.5,30.10,NW,307,0.3,2.3,90,0.00,CLR,FEW,0.00,0.0,WeatherDisplay:10.37,2013-12-28 02:36:00,
2013-12-27 21:41:00,17.0,14.6,30.10,NW,307,0.2,0.0,90,0.00,CLR,FEW,0.00,0.0,WeatherDisplay:10.37,2013-12-28 02:41:00,
2013-12-27 21:46:00,16.3,13.9,30.10,NW,307,2.1,3.0,90,0.00,CLR,FEW,0.00,0.0,WeatherDisplay:10.37,2013-12-28 02:46:00,
2013-12-27 21:52:00,16.0,13.6,30.10,NW,307,0.8,0.0,90,0.00,CLR,FEW,0.00,0.0,WeatherDisplay:10.37,2013-12-28 02:52:00,
2013-12-27 21:57:00,15.5,13.1,30.10,NW,307,0.0,2.3,90,0.00,CLR,FEW,0.00,0.0,WeatherDisplay:10.37,2013-12-28 02:57:00,
2013-12-27 22:02:00,15.1,12.7,30.10,NW,307,1.3,2.3,90,0.00,CLR,FEW,0.00,0.0,WeatherDisplay:10.37,2013-12-28 03:02:00,
2013-12-27 22:07:00,14.8,12.4,30.10,NW,307,0.5,2.3,90,0.00,CLR,FEW,0.00,0.0,WeatherDisplay:10.37,2013-12-28 03:07:00,
2013-12-27 22:12:00,14.6,12.2,30.09,NW,307,0.3,1.2,90,0.00,CLR,FEW,0.00,0.0,WeatherDisplay:10.37,2013-12-28 03:12:00,
2013-12-27 22:17:00,14.3,12.2,30.09,NW,307,0.0,1.2,91,0.00,CLR,FEW,0.00,0.0,WeatherDisplay:10.37,2013-12-28 03:17:00,
2013-12-27 22:22:00,14.2,12.1,30.09,NW,307,0.0,0.0,91,0.00,CLR,FEW,0.00,0.0,WeatherDisplay:10.37,2013-12-28 03:22:00,
2013-12-27 22:27:00,14.3,12.2,30.09,NW,307,0.0,0.0,91,0.00,CLR,FEW,0.00,0.0,WeatherDisplay:10.37,2013-12-28 03:27:00,
2013-12-27 22:32:00,14.3,12.2,30.09,NW,307,0.3,1.2,91,0.00,CLR,FEW,0.00,0.0,WeatherDisplay:10.37,2013-12-28 03:32:00,
2013-12-27 22:37:00,14.1,12.0,30.09,NW,307,0.1,1.2,91,0.00,CLR,FEW,0.00,0.0,WeatherDisplay:10.37,2013-12-28 03:37:00,
2013-12-27 22:42:00,13.8,11.7,30.08,NW,307,0.0,1.2,91,0.00,CLR,FEW,0.00,0.0,WeatherDisplay:10.37,2013-12-28 03:42:00,
2013-12-27 22:47:00,13.6,11.5,30.08,NW,307,0.0,0.0,91,0.00,CLR,FEW,0.00,0.0,WeatherDisplay:10.37,2013-12-28 03:47:00,
2013-12-27 22:52:00,13.5,11.4,30.08,NW,307,0.0,0.0,91,0.00,CLR,FEW,0.00,0.0,WeatherDisplay:10.37,2013-12-28 03:52:00,
2013-12-27 22:57:00,13.5,11.4,30.08,NW,307,0.0,0.0,91,0.00,CLR,FEW,0.00,0.0,WeatherDisplay:10.37,2013-12-28 03:57:00,
2013-12-27 23:02:00,13.5,11.4,30.08,NW,307,0.0,0.0,91,0.00,CLR,FEW,0.00,0.0,WeatherDisplay:10.37,2013-12-28 04:02:00,
2013-12-27 23:07:00,13.6,11.5,30.08,NW,307,0.0,0.0,91,0.00,CLR,FEW,0.00,0.0,WeatherDisplay:10.37,2013-12-28 04:07:00,
2013-12-27 23:12:00,13.5,11.4,30.08,NW,307,0.0,0.0,91,0.00,CLR,FEW,0.00,0.0,WeatherDisplay:10.37,2013-12-28 04:12:00,
2013-12-27 23:17:00,13.5,11.6,30.08,NW,307,0.0,0.0,92,0.00,CLR,FEW,0.00,0.0,WeatherDisplay:10.37,2013-12-28 04:17:00,
2013-12-27 23:22:00,13.4,11.5,30.08,NW,307,0.0,0.0,92,0.00,CLR,FEW,0.00,0.0,WeatherDisplay:10.37,2013-12-28 04:22:00,
2013-12-27 23:27:00,13.4,11.5,30.08,NW,307,0.0,0.0,92,0.00,CLR,FEW,0.00,0.0,WeatherDisplay:10.37,2013-12-28 04:27:00,
2013-12-27 23:32:00,13.2,11.1,30.08,NW,307,0.0,0.0,91,0.00,CLR,FEW,0.00,0.0,WeatherDisplay:10.37,2013-12-28 04:32:00,
2013-12-27 23:37:00,13.1,11.0,30.08,NW,307,0.0,0.0,91,0.00,CLR,FEW,0.00,0.0,WeatherDisplay:10.37,2013-12-28 04:37:00,
2013-12-27 23:42:00,12.5,10.4,30.07,NW,307,0.0,1.2,91,0.00,CLR,FEW,0.00,0.0,WeatherDisplay:10.37,2013-12-28 04:42:00,
2013-12-27 23:47:00,12.3,10.2,30.07,NW,307,0.0,0.0,91,0.00,CLR,FEW,0.00,0.0,WeatherDisplay:10.37,2013-12-28 04:47:00,
2013-12-27 23:52:00,12.2,10.1,30.07,NW,307,0.0,0.0,91,0.00,CLR,FEW,0.00,0.0,WeatherDisplay:10.37,2013-12-28 04:52:00,
2013-12-27 23:57:00,12.1,10.0,30.08,NW,307,0.0,0.0,91,0.00,CLR,FEW,0.00,0.0,WeatherDisplay:10.37,2013-12-28 04:57:00,